Time;durP1;ratioP1;P1;durP2;ratioP2;P2;SDS_P1;SDS_P2;PMS_P1;PMS_P2;Temp;Humidity;BMP_temperature;BMP_pressure;BME280_temperature;BME280_humidity;BME280_pressure;Samples;Min_cycle;Max_cycle;Signal;HPM_P1;HPM_P2
2023/08/19 00:01:00;;;;;;;6.03;3.33;;;22.40;99.90;;;;;;4938353;29;20028;-66
2023/08/19 00:03:26;;;;;;;6.75;3.40;;;22.30;99.90;;;;;;4922204;29;20035;-66
2023/08/19 00:05:52;;;;;;;8.07;3.78;;;22.20;99.90;;;;;;4937957;29;20036;-66
2023/08/19 00:08:19;;;;;;;7.07;3.03;;;22.10;99.90;;;;;;4938033;29;20031;-66
2023/08/19 00:10:44;;;;;;;7.43;3.38;;;22.20;99.90;;;;;;4938024;29;20028;-66
2023/08/19 00:13:10;;;;;;;10.32;3.10;;;22.30;99.90;;;;;;4938209;29;20047;-67
2023/08/19 00:15:36;;;;;;;3.78;3.15;;;22.30;99.90;;;;;;4922188;29;20032;-67
2023/08/19 00:18:02;;;;;;;10.90;3.53;;;22.30;99.90;;;;;;4923684;29;20063;-66
2023/08/19 00:20:28;;;;;;;6.72;3.42;;;22.30;99.90;;;;;;4942052;29;20075;-66
2023/08/19 00:22:56;;;;;;;7.47;3.33;;;22.30;99.90;;;;;;4925941;29;20032;-67
2023/08/19 00:25:22;;;;;;;8.20;3.72;;;22.30;99.90;;;;;;4977103;28;20034;-66
2023/08/19 00:27:47;;;;;;;6.25;2.90;;;22.30;99.90;;;;;;5016748;28;20057;-66
2023/08/19 00:30:13;;;;;;;10.68;3.58;;;22.30;99.90;;;;;;5016708;28;20057;-66
2023/08/19 00:32:40;;;;;;;6.38;3.55;;;22.30;99.90;;;;;;5000287;28;20026;-67
2023/08/19 00:35:06;;;;;;;5.10;2.75;;;22.30;99.90;;;;;;5016538;28;20037;-67
2023/08/19 00:37:32;;;;;;;6.80;3.58;;;22.20;99.90;;;;;;5000849;28;20031;-66
2023/08/19 00:39:58;;;;;;;10.70;3.60;;;22.20;99.90;;;;;;5001119;28;20061;-66
2023/08/19 00:42:23;;;;;;;13.55;3.65;;;22.20;99.90;;;;;;5016673;28;20027;-67
2023/08/19 00:44:49;;;;;;;7.15;3.70;;;22.30;99.90;;;;;;5016313;28;20030;-67
2023/08/19 00:47:15;;;;;;;6.40;4.00;;;22.40;99.90;;;;;;5001033;28;20029;-67
2023/08/19 00:49:41;;;;;;;8.95;4.45;;;22.40;99.90;;;;;;5000772;28;20026;-66
2023/08/19 00:52:07;;;;;;;14.95;5.60;;;22.40;99.90;;;;;;5000893;28;20041;-66
2023/08/19 00:54:33;;;;;;;8.77;4.80;;;22.40;99.90;;;;;;5016630;28;20028;-67
2023/08/19 00:56:59;;;;;;;13.90;5.07;;;22.40;99.90;;;;;;5016252;28;20109;-67
2023/08/19 00:59:26;;;;;;;13.38;4.80;;;22.40;99.90;;;;;;5016031;28;20061;-67
2023/08/19 01:01:52;;;;;;;9.10;4.38;;;22.40;99.90;;;;;;5001352;28;20019;-66
2023/08/19 01:04:18;;;;;;;14.48;4.93;;;22.40;99.90;;;;;;5015971;28;20041;-67
2023/08/19 01:06:58;;;;;;;9.65;4.20;;;22.30;99.90;;;;;;5015947;28;20018;-67
2023/08/19 01:09:37;;;;;;;13.80;4.10;;;22.30;99.90;;;;;;5015992;28;20031;-67
2023/08/19 01:12:24;;;;;;;13.40;5.13;;;22.30;99.90;;;;;;5016694;28;20261;-67
2023/08/19 01:15:12;;;;;;;7.43;4.25;;;22.30;99.90;;;;;;5015828;28;20026;-66
2023/08/19 01:17:39;;;;;;;11.52;3.90;;;22.30;99.90;;;;;;5000343;28;20053;-67
2023/08/19 01:20:08;;;;;;;8.65;3.97;;;22.30;99.90;;;;;;5000325;28;20033;-67
2023/08/19 01:22:49;;;;;;;10.82;4.38;;;22.40;99.90;;;;;;5000368;28;20026;-67
2023/08/19 01:25:16;;;;;;;6.97;4.55;;;22.40;99.90;;;;;;5000582;28;20026;-66
2023/08/19 01:27:41;;;;;;;6.93;4.22;;;22.40;99.90;;;;;;5015475;28;20023;-66
2023/08/19 01:30:08;;;;;;;4.90;3.97;;;22.40;99.90;;;;;;4999459;28;20018;-66
2023/08/19 01:32:34;;;;;;;3.90;3.50;;;22.30;99.90;;;;;;5000078;28;20046;-66
2023/08/19 01:35:00;;;;;;;6.25;3.85;;;22.00;99.90;;;;;;5015346;28;20022;-66
2023/08/19 01:37:37;;;;;;;9.50;3.40;;;21.80;99.90;;;;;;5015444;28;20052;-66
2023/08/19 01:40:05;;;;;;;9.90;4.07;;;21.80;99.90;;;;;;4999829;28;20112;-66
2023/08/19 01:42:32;;;;;;;5.10;3.60;;;21.80;99.90;;;;;;5015351;28;20080;-67
2023/08/19 01:44:58;;;;;;;5.72;3.90;;;21.70;99.90;;;;;;5015243;28;20080;-67
2023/08/19 01:47:24;;;;;;;6.85;3.50;;;21.70;99.90;;;;;;5015191;28;20022;-67
2023/08/19 01:49:49;;;;;;;6.00;3.10;;;21.70;99.90;;;;;;5015413;28;20157;-66
2023/08/19 01:52:17;;;;;;;8.85;3.55;;;21.70;99.90;;;;;;4998820;28;20022;-66
2023/08/19 01:54:43;;;;;;;11.80;3.20;;;21.70;99.90;;;;;;5015164;28;20026;-66
2023/08/19 01:57:08;;;;;;;4.38;3.40;;;21.70;99.90;;;;;;4998736;28;20036;-66
2023/08/19 01:59:34;;;;;;;10.88;3.53;;;21.80;99.90;;;;;;4999483;28;20026;-67
2023/08/19 02:02:00;;;;;;;4.57;3.22;;;21.80;99.90;;;;;;4998945;28;20031;-67
2023/08/19 02:04:26;;;;;;;14.57;3.55;;;21.80;99.90;;;;;;4999516;28;20030;-66
2023/08/19 02:06:53;;;;;;;9.52;3.47;;;21.80;99.90;;;;;;4999539;28;20036;-66
2023/08/19 02:09:18;;;;;;;6.88;3.08;;;21.70;99.90;;;;;;5014745;28;20050;-66
2023/08/19 02:11:44;;;;;;;4.28;3.30;;;21.70;99.90;;;;;;5014889;28;20026;-66
2023/08/19 02:14:09;;;;;;;7.22;3.05;;;21.60;99.90;;;;;;5015173;28;20031;-66
2023/08/19 02:16:35;;;;;;;7.18;3.20;;;21.70;99.90;;;;;;5014729;28;20064;-66
2023/08/19 02:19:01;;;;;;;5.88;3.03;;;21.60;99.90;;;;;;4999346;28;20030;-66
2023/08/19 02:21:26;;;;;;;7.22;3.58;;;21.60;99.90;;;;;;5014563;28;20030;-66
2023/08/19 02:23:53;;;;;;;4.93;2.95;;;21.60;99.90;;;;;;5014404;28;20026;-66
2023/08/19 02:26:19;;;;;;;6.80;3.05;;;21.60;99.90;;;;;;5014582;28;20116;-66
2023/08/19 02:28:44;;;;;;;6.10;3.08;;;21.60;99.90;;;;;;4998055;28;20112;-66
2023/08/19 02:31:10;;;;;;;9.02;3.30;;;21.60;99.90;;;;;;4998945;28;20023;-66
2023/08/19 02:33:36;;;;;;;14.00;3.50;;;21.60;99.90;;;;;;4999271;28;20026;-66
2023/08/19 02:36:04;;;;;;;8.52;4.13;;;21.60;99.90;;;;;;5015009;28;20078;-66
2023/08/19 02:38:29;;;;;;;11.98;4.50;;;21.70;99.90;;;;;;5014332;28;20037;-66
2023/08/19 02:40:56;;;;;;;10.15;4.18;;;21.70;99.90;;;;;;4997476;28;20042;-66
2023/08/19 02:43:21;;;;;;;4.30;3.30;;;21.70;99.90;;;;;;4998554;28;20054;-67
2023/08/19 02:45:47;;;;;;;7.90;3.90;;;21.70;99.90;;;;;;5014195;28;20062;-67
2023/08/19 02:48:14;;;;;;;7.97;4.30;;;21.70;99.90;;;;;;4998597;28;20022;-66
2023/08/19 02:50:40;;;;;;;7.13;3.58;;;21.60;99.90;;;;;;4998533;28;20022;-66
2023/08/19 02:53:06;;;;;;;7.05;3.53;;;21.60;99.90;;;;;;5015016;28;20033;-66
2023/08/19 02:55:32;;;;;;;9.40;3.63;;;21.60;99.90;;;;;;5013886;28;20113;-66
2023/08/19 02:57:57;;;;;;;5.45;3.70;;;21.50;99.90;;;;;;4997544;28;20057;-66
2023/08/19 03:00:23;;;;;;;8.48;3.60;;;21.50;99.90;;;;;;4998627;28;20046;-66
2023/08/19 03:02:48;;;;;;;6.63;3.28;;;21.40;99.90;;;;;;4998955;28;20022;-66
2023/08/19 03:05:14;;;;;;;5.20;3.88;;;21.40;99.90;;;;;;4998249;28;20030;-67
2023/08/19 03:07:40;;;;;;;6.70;3.75;;;21.40;99.90;;;;;;5013960;28;20029;-66
2023/08/19 03:10:06;;;;;;;10.05;3.60;;;21.30;99.90;;;;;;4998423;28;20049;-66
2023/08/19 03:12:32;;;;;;;4.82;3.22;;;21.30;99.90;;;;;;4998217;28;20026;-65
2023/08/19 03:14:58;;;;;;;9.68;4.35;;;21.40;99.90;;;;;;5013734;28;20037;-65
2023/08/19 03:17:23;;;;;;;5.15;3.72;;;21.20;99.90;;;;;;5013531;28;20109;-65
2023/08/19 03:19:49;;;;;;;14.02;4.13;;;21.10;99.90;;;;;;5013637;28;20124;-65
2023/08/19 03:22:14;;;;;;;7.10;3.63;;;21.10;99.90;;;;;;5014094;28;20057;-65
2023/08/19 03:24:40;;;;;;;4.57;3.42;;;21.20;99.90;;;;;;4997095;28;20080;-65
2023/08/19 03:27:06;;;;;;;5.40;3.35;;;21.10;99.90;;;;;;4998666;28;20022;-65
2023/08/19 03:29:32;;;;;;;4.22;2.95;;;21.10;99.90;;;;;;5013306;28;20022;-65
2023/08/19 03:31:57;;;;;;;7.75;3.67;;;21.00;99.90;;;;;;4998384;28;20034;-65
2023/08/19 03:34:25;;;;;;;4.50;3.08;;;21.00;99.90;;;;;;5013383;28;20027;-65
2023/08/19 03:36:50;;;;;;;5.30;3.55;;;20.80;99.90;;;;;;4997940;28;20102;-65
2023/08/19 03:39:16;;;;;;;5.70;3.17;;;20.80;99.90;;;;;;4997865;28;20038;-66
2023/08/19 03:41:41;;;;;;;7.50;3.10;;;20.80;99.90;;;;;;4998415;28;20046;-65
2023/08/19 03:44:07;;;;;;;5.63;3.70;;;20.80;99.90;;;;;;5013261;28;20030;-65
2023/08/19 03:46:32;;;;;;;10.07;3.03;;;20.80;99.90;;;;;;5013584;28;20029;-65
2023/08/19 03:48:58;;;;;;;11.48;3.45;;;20.80;99.90;;;;;;5013145;28;20026;-65
2023/08/19 03:51:23;;;;;;;4.65;2.95;;;20.70;99.90;;;;;;4997944;28;20022;-65
2023/08/19 03:53:49;;;;;;;6.95;3.78;;;20.70;99.90;;;;;;4997669;28;20033;-65
2023/08/19 03:56:14;;;;;;;6.57;3.85;;;20.70;99.90;;;;;;5013078;28;20026;-66
2023/08/19 03:58:40;;;;;;;9.38;3.65;;;20.70;99.90;;;;;;5013241;28;20023;-65
2023/08/19 04:01:09;;;;;;;7.43;3.13;;;20.70;99.90;;;;;;4997692;28;20038;-66
2023/08/19 04:03:34;;;;;;;7.40;3.17;;;20.70;99.90;;;;;;5013244;28;20034;-66
2023/08/19 04:06:00;;;;;;;4.88;3.42;;;20.70;99.90;;;;;;4996783;28;20037;-65
2023/08/19 04:08:26;;;;;;;8.02;3.40;;;20.80;99.90;;;;;;5013049;28;20030;-65
2023/08/19 04:10:51;;;;;;;9.63;3.65;;;20.70;99.90;;;;;;5012793;28;20026;-65
2023/08/19 04:13:18;;;;;;;11.85;3.30;;;20.50;99.90;;;;;;5013824;28;20180;-65
2023/08/19 04:15:43;;;;;;;5.28;3.55;;;20.40;99.90;;;;;;5013527;28;20026;-66
2023/08/19 04:18:10;;;;;;;5.55;3.10;;;20.40;99.90;;;;;;5012938;28;20035;-65
2023/08/19 04:20:39;;;;;;;11.60;4.00;;;20.40;99.90;;;;;;4997447;28;20029;-66
2023/08/19 04:23:06;;;;;;;4.72;3.33;;;20.60;99.90;;;;;;4997287;28;20034;-65
2023/08/19 04:25:31;;;;;;;8.15;3.35;;;20.70;99.90;;;;;;5012952;28;20029;-66
2023/08/19 04:27:57;;;;;;;5.40;3.15;;;20.70;99.90;;;;;;4997302;28;20031;-65
2023/08/19 04:30:22;;;;;;;7.07;2.85;;;20.80;99.90;;;;;;5012810;28;20073;-65
2023/08/19 04:32:48;;;;;;;5.88;3.00;;;20.90;99.90;;;;;;5012806;28;20019;-65
2023/08/19 04:35:13;;;;;;;5.53;3.10;;;20.70;99.90;;;;;;4997338;28;20037;-66
2023/08/19 04:37:39;;;;;;;7.20;3.10;;;20.50;99.90;;;;;;5012873;28;20096;-65
2023/08/19 04:40:09;;;;;;;4.85;3.05;;;20.50;99.90;;;;;;5012513;28;20034;-65
2023/08/19 04:42:38;;;;;;;5.32;2.92;;;20.50;99.90;;;;;;5012773;28;20057;-65
2023/08/19 04:45:07;;;;;;;9.98;3.63;;;20.70;99.90;;;;;;4997339;28;20022;-65
2023/08/19 04:47:36;;;;;;;12.07;3.05;;;20.80;99.90;;;;;;4997486;28;20080;-66
2023/08/19 04:50:07;;;;;;;7.85;3.67;;;20.80;99.90;;;;;;4996319;28;20033;-66
2023/08/19 04:52:33;;;;;;;8.90;4.30;;;20.90;99.90;;;;;;5013517;28;20025;-65
2023/08/19 04:54:59;;;;;;;7.45;4.45;;;21.00;99.90;;;;;;4996274;28;20030;-66
2023/08/19 04:57:24;;;;;;;7.55;4.38;;;21.10;99.90;;;;;;5012839;28;20034;-66
2023/08/19 04:59:50;;;;;;;7.72;4.10;;;21.10;99.90;;;;;;5013066;28;20034;-66
2023/08/19 05:02:15;;;;;;;7.40;4.63;;;21.00;99.90;;;;;;5012465;28;20023;-66
2023/08/19 05:04:41;;;;;;;10.27;4.53;;;21.00;99.90;;;;;;5014784;28;20023;-65
2023/08/19 05:07:06;;;;;;;10.00;4.57;;;21.00;99.90;;;;;;5016133;28;20023;-66
2023/08/19 05:09:32;;;;;;;7.13;3.95;;;21.10;99.90;;;;;;5000328;28;20026;-65
2023/08/19 05:11:57;;;;;;;8.25;3.97;;;21.10;99.90;;;;;;5016701;28;20113;-65
2023/08/19 05:14:23;;;;;;;6.53;4.65;;;21.10;99.90;;;;;;5015852;28;20030;-66
2023/08/19 05:16:48;;;;;;;9.63;4.15;;;21.20;99.90;;;;;;5016126;28;20029;-65
2023/08/19 05:19:19;;;;;;;5.63;3.83;;;21.10;99.90;;;;;;5016017;28;20026;-66
2023/08/19 05:21:46;;;;;;;6.50;4.45;;;21.10;99.90;;;;;;5015682;28;20037;-66
2023/08/19 05:24:12;;;;;;;4.22;3.60;;;21.10;99.90;;;;;;5016436;28;20122;-66
2023/08/19 05:26:39;;;;;;;10.65;4.65;;;21.10;99.90;;;;;;5015693;28;20027;-66
2023/08/19 05:29:05;;;;;;;7.55;3.88;;;21.10;99.90;;;;;;5015906;28;20022;-66
2023/08/19 05:31:30;;;;;;;6.10;4.35;;;21.20;99.90;;;;;;5000053;28;20102;-65
2023/08/19 05:33:56;;;;;;;11.75;4.30;;;21.40;99.90;;;;;;5015541;28;20049;-66
2023/08/19 05:36:21;;;;;;;10.88;4.07;;;21.40;99.90;;;;;;5000130;28;20030;-66
2023/08/19 05:38:47;;;;;;;7.82;3.97;;;21.50;99.90;;;;;;4998867;28;20044;-65
2023/08/19 05:41:12;;;;;;;7.07;3.75;;;21.60;99.90;;;;;;5015486;28;20053;-66
2023/08/19 05:43:38;;;;;;;10.13;4.22;;;21.70;99.90;;;;;;5015222;28;20030;-66
2023/08/19 05:46:05;;;;;;;6.38;3.75;;;21.80;99.90;;;;;;4999835;28;20023;-66
2023/08/19 05:48:31;;;;;;;5.60;4.20;;;21.90;99.90;;;;;;5016013;28;20029;-66
2023/08/19 05:50:56;;;;;;;7.13;3.63;;;22.00;99.90;;;;;;5016019;28;20030;-65
2023/08/19 05:53:22;;;;;;;5.38;4.13;;;22.10;99.90;;;;;;5015423;28;20026;-66
2023/08/19 05:55:47;;;;;;;5.65;3.95;;;22.10;99.90;;;;;;5015077;28;20045;-66
2023/08/19 05:58:14;;;;;;;6.07;4.00;;;22.20;99.90;;;;;;5015138;28;20022;-66
2023/08/19 06:00:40;;;;;;;7.85;3.92;;;22.30;99.90;;;;;;4998928;28;20085;-66
2023/08/19 06:03:06;;;;;;;7.00;3.42;;;22.30;99.90;;;;;;4999584;28;20034;-66
2023/08/19 06:05:31;;;;;;;5.05;4.05;;;22.20;99.90;;;;;;4999547;28;20076;-66
2023/08/19 06:07:57;;;;;;;7.50;4.35;;;22.20;99.90;;;;;;4999412;28;20031;-66
2023/08/19 06:10:23;;;;;;;8.75;3.92;;;22.20;99.90;;;;;;4998523;28;20118;-66
2023/08/19 06:12:48;;;;;;;9.50;4.22;;;22.10;99.90;;;;;;4999522;28;20022;-66
2023/08/19 06:15:14;;;;;;;9.43;3.92;;;22.10;99.90;;;;;;5015553;28;20022;-66
2023/08/19 06:17:40;;;;;;;19.58;4.35;;;22.10;99.90;;;;;;5014698;28;20026;-66
2023/08/19 06:20:06;;;;;;;11.45;4.00;;;22.10;99.90;;;;;;4999102;28;20042;-65
2023/08/19 06:22:32;;;;;;;7.15;4.13;;;22.20;99.90;;;;;;4999741;28;20069;-66
2023/08/19 06:24:57;;;;;;;10.35;3.90;;;22.30;99.90;;;;;;5014575;28;20035;-66
2023/08/19 06:27:23;;;;;;;8.25;4.03;;;22.30;99.90;;;;;;5014799;28;20033;-66
2023/08/19 06:29:49;;;;;;;6.38;3.85;;;22.30;99.90;;;;;;4998026;28;20018;-66
2023/08/19 06:32:15;;;;;;;10.45;4.00;;;22.40;99.90;;;;;;5014579;28;20030;-66
2023/08/19 06:34:41;;;;;;;5.78;3.90;;;22.50;99.90;;;;;;5015080;28;20030;-66
2023/08/19 06:37:10;;;;;;;5.63;3.58;;;22.50;99.90;;;;;;4998863;28;20105;-66
2023/08/19 06:39:37;;;;;;;5.95;3.30;;;22.60;99.90;;;;;;5014112;28;20053;-66
2023/08/19 06:42:04;;;;;;;10.60;4.28;;;22.70;99.90;;;;;;4998919;28;20033;-66
2023/08/19 06:44:31;;;;;;;8.70;3.75;;;22.70;99.90;;;;;;5014364;28;20038;-66
2023/08/19 06:46:57;;;;;;;6.32;4.38;;;22.80;99.90;;;;;;5014171;28;20057;-66
2023/08/19 06:49:23;;;;;;;4.95;3.28;;;22.90;99.90;;;;;;4998745;28;20073;-66
2023/08/19 06:51:49;;;;;;;6.65;3.55;;;23.00;99.90;;;;;;4998652;28;20022;-66
2023/08/19 06:54:15;;;;;;;6.60;3.63;;;23.10;99.90;;;;;;5014038;28;20034;-66
2023/08/19 06:57:10;;;;;;;8.30;3.65;;;23.20;99.90;;;;;;5013947;28;20035;-66
2023/08/19 06:59:38;;;;;;;5.13;4.03;;;23.30;99.90;;;;;;5014191;28;20027;-66
2023/08/19 07:02:04;;;;;;;6.13;3.50;;;23.30;99.90;;;;;;4998441;28;20030;-66
2023/08/19 07:04:31;;;;;;;9.57;3.80;;;23.40;99.90;;;;;;5014438;28;20034;-66
2023/08/19 07:06:58;;;;;;;8.88;4.05;;;23.40;99.90;;;;;;4998297;28;20106;-66
2023/08/19 07:09:24;;;;;;;6.22;3.47;;;23.50;99.90;;;;;;5014253;28;20080;-66
2023/08/19 07:11:53;;;;;;;5.90;3.88;;;23.50;99.90;;;;;;5014506;28;20030;-66
2023/08/19 07:14:19;;;;;;;10.73;3.70;;;23.60;99.90;;;;;;4998168;28;20088;-66
2023/08/19 07:16:48;;;;;;;7.90;3.78;;;23.70;99.90;;;;;;4997327;28;20023;-65
2023/08/19 07:19:17;;;;;;;6.38;3.45;;;23.80;99.90;;;;;;4998382;28;20030;-66
2023/08/19 07:21:46;;;;;;;6.90;3.40;;;23.90;99.90;;;;;;4998028;28;20085;-66
2023/08/19 07:24:12;;;;;;;6.95;3.30;;;24.00;99.90;;;;;;4998085;28;20101;-66
2023/08/19 07:26:39;;;;;;;6.95;3.38;;;24.20;99.90;;;;;;4996663;28;20034;-66
2023/08/19 07:29:05;;;;;;;6.10;3.13;;;24.30;99.90;;;;;;4997063;28;20026;-66
2023/08/19 07:31:31;;;;;;;6.13;3.42;;;24.30;99.90;;;;;;4998221;28;20041;-66
2023/08/19 07:33:58;;;;;;;7.75;3.47;;;24.40;99.90;;;;;;5013365;28;20030;-66
2023/08/19 07:36:25;;;;;;;6.38;3.60;;;24.50;99.90;;;;;;5014117;28;20073;-66
2023/08/19 07:38:50;;;;;;;5.20;2.95;;;24.50;99.90;;;;;;4997927;28;20033;-66
2023/08/19 07:41:18;;;;;;;7.40;3.75;;;24.60;99.90;;;;;;4997922;28;20023;-66
2023/08/19 07:43:44;;;;;;;6.63;3.20;;;24.60;99.90;;;;;;5013440;28;20033;-66
2023/08/19 07:46:09;;;;;;;6.85;3.70;;;24.60;99.90;;;;;;5013266;28;20022;-66
2023/08/19 07:48:35;;;;;;;4.32;3.28;;;24.60;99.90;;;;;;5013145;28;20049;-66
2023/08/19 07:51:00;;;;;;;8.38;3.70;;;24.70;99.90;;;;;;4998155;28;20026;-66
2023/08/19 07:53:26;;;;;;;14.93;4.28;;;24.70;99.90;;;;;;5013809;28;20034;-66
2023/08/19 07:55:52;;;;;;;5.20;3.45;;;24.90;99.90;;;;;;4998006;28;20023;-66
2023/08/19 07:58:17;;;;;;;4.63;3.40;;;25.00;99.90;;;;;;5013390;28;20034;-66
2023/08/19 08:00:43;;;;;;;4.53;3.35;;;25.00;99.90;;;;;;4997071;28;20026;-66
2023/08/19 08:03:08;;;;;;;7.63;3.50;;;24.90;99.90;;;;;;5012933;28;20023;-65
2023/08/19 08:05:34;;;;;;;9.38;3.10;;;25.00;99.90;;;;;;5012970;28;20022;-66
2023/08/19 08:08:00;;;;;;;8.05;3.20;;;25.10;99.90;;;;;;4997105;28;20029;-66
2023/08/19 08:10:26;;;;;;;4.85;3.22;;;25.30;99.90;;;;;;5013199;28;20023;-67
2023/08/19 08:12:52;;;;;;;9.68;3.35;;;25.50;99.90;;;;;;4997822;28;20029;-67
2023/08/19 08:15:18;;;;;;;8.20;3.25;;;25.50;99.90;;;;;;4997649;28;20040;-67
2023/08/19 08:17:43;;;;;;;5.63;2.95;;;25.60;99.90;;;;;;5013272;28;20026;-68
2023/08/19 08:20:09;;;;;;;8.63;2.83;;;25.70;99.90;;;;;;5013893;28;20026;-67
2023/08/19 08:22:35;;;;;;;4.38;2.90;;;25.90;99.90;;;;;;5012790;28;20030;-67
2023/08/19 08:25:04;;;;;;;3.67;3.08;;;26.00;99.90;;;;;;5012849;28;20109;-67
2023/08/19 08:27:30;;;;;;;4.10;3.05;;;26.10;99.90;;;;;;5012903;28;20049;-67
2023/08/19 08:29:55;;;;;;;4.30;3.00;;;26.30;99.90;;;;;;5012717;28;20026;-68
2023/08/19 08:32:21;;;;;;;3.95;2.60;;;26.50;99.90;;;;;;5013592;28;20042;-67
2023/08/19 08:34:47;;;;;;;3.47;2.92;;;26.50;99.90;;;;;;5012944;28;20033;-67
2023/08/19 08:37:12;;;;;;;5.07;2.60;;;26.70;99.90;;;;;;4996514;28;20026;-67
2023/08/19 08:39:38;;;;;;;3.17;2.65;;;26.70;99.90;;;;;;4999714;28;20081;-67
2023/08/19 08:42:04;;;;;;;6.15;2.90;;;26.90;99.90;;;;;;5018005;28;20133;-67
2023/08/19 08:44:32;;;;;;;4.90;2.40;;;26.90;99.90;;;;;;5000977;28;20038;-67
2023/08/19 08:46:59;;;;;;;4.28;2.88;;;27.00;99.90;;;;;;5000963;28;20076;-67
2023/08/19 08:49:27;;;;;;;8.32;2.80;;;27.20;99.90;;;;;;5000901;28;20022;-66
2023/08/19 08:51:54;;;;;;;4.68;2.65;;;27.30;99.90;;;;;;5016269;28;20117;-67
2023/08/19 08:54:21;;;;;;;5.35;2.92;;;27.30;99.90;;;;;;5000008;28;20034;-66
2023/08/19 08:56:47;;;;;;;4.70;3.13;;;27.50;99.90;;;;;;5000907;28;20054;-66
2023/08/19 08:59:13;;;;;;;9.20;3.60;;;27.60;99.90;;;;;;4999701;28;20030;-66
2023/08/19 09:01:40;;;;;;;3.78;2.58;;;27.70;99.90;;;;;;5001267;28;20113;-66
2023/08/19 09:04:08;;;;;;;5.80;2.60;;;27.70;99.90;;;;;;5015955;28;20026;-67
2023/08/19 09:06:37;;;;;;;7.18;3.05;;;27.70;99.90;;;;;;5001031;28;20018;-67
2023/08/19 09:09:08;;;;;;;6.00;3.28;;;27.80;99.90;;;;;;5000382;28;20018;-67
2023/08/19 09:11:36;;;;;;;3.90;2.85;;;27.80;99.90;;;;;;5000864;28;20049;-67
2023/08/19 09:14:34;;;;;;;5.47;3.30;;;27.80;99.90;;;;;;5000507;28;20026;-67
2023/08/19 09:17:00;;;;;;;4.18;2.63;;;27.80;99.90;;;;;;5015905;28;20129;-67
2023/08/19 09:19:25;;;;;;;7.10;3.33;;;27.80;99.90;;;;;;5000463;28;20062;-67
2023/08/19 09:21:51;;;;;;;5.93;2.78;;;27.90;99.90;;;;;;5000362;28;20018;-66
2023/08/19 09:24:17;;;;;;;3.05;2.40;;;28.30;99.90;;;;;;5000233;28;20038;-67
2023/08/19 09:26:44;;;;;;;5.60;3.05;;;28.50;99.90;;;;;;5000203;28;20034;-67
2023/08/19 09:29:09;;;;;;;4.30;3.28;;;28.50;99.90;;;;;;5000107;28;20027;-67
2023/08/19 09:31:38;;;;;;;5.63;3.42;;;28.70;99.90;;;;;;5000582;28;20037;-67
2023/08/19 09:34:03;;;;;;;4.57;2.97;;;28.80;99.90;;;;;;5000114;28;20026;-67
2023/08/19 09:36:30;;;;;;;6.50;2.90;;;28.80;99.90;;;;;;5015791;28;20030;-67
2023/08/19 09:38:57;;;;;;;3.45;3.08;;;28.80;99.90;;;;;;5015044;28;20022;-67
2023/08/19 09:41:27;;;;;;;5.70;2.67;;;28.70;99.90;;;;;;5015934;28;20122;-67
2023/08/19 09:43:54;;;;;;;7.80;2.70;;;28.70;99.90;;;;;;4999830;28;20034;-67
2023/08/19 09:46:20;;;;;;;7.18;2.95;;;28.60;99.90;;;;;;4999885;28;20034;-67
2023/08/19 09:48:53;;;;;;;5.20;2.28;;;28.80;99.90;;;;;;4999596;28;20018;-67
2023/08/19 09:51:26;;;;;;;9.40;3.55;;;28.90;99.90;;;;;;5015039;28;20034;-67
2023/08/19 09:53:53;;;;;;;6.95;2.85;;;29.10;99.90;;;;;;5015439;28;20026;-66
2023/08/19 09:56:23;;;;;;;3.20;2.65;;;29.20;99.90;;;;;;4999599;28;20161;-67
2023/08/19 09:58:53;;;;;;;5.90;3.22;;;29.40;99.90;;;;;;4999523;28;20030;-66
2023/08/19 10:01:21;;;;;;;4.40;2.92;;;29.60;99.90;;;;;;4999531;28;20030;-66
2023/08/19 10:03:47;;;;;;;4.22;3.03;;;29.80;99.90;;;;;;5015187;28;20113;-67
2023/08/19 10:06:16;;;;;;;6.13;3.10;;;29.90;99.90;;;;;;5014846;28;20085;-67
2023/08/19 10:08:46;;;;;;;5.43;2.85;;;30.10;99.90;;;;;;4999403;28;20102;-67
2023/08/19 10:11:16;;;;;;;5.50;3.13;;;30.00;99.90;;;;;;5015440;28;20056;-66
2023/08/19 10:13:45;;;;;;;4.93;2.90;;;29.60;99.90;;;;;;5015380;28;20052;-67
2023/08/19 10:16:13;;;;;;;8.40;3.03;;;29.60;99.90;;;;;;4999270;28;20022;-67
2023/08/19 10:18:41;;;;;;;4.20;2.83;;;29.60;99.90;;;;;;5014635;28;20030;-67
2023/08/19 10:21:10;;;;;;;8.27;2.80;;;29.70;99.90;;;;;;5014605;28;20030;-67
2023/08/19 10:23:40;;;;;;;4.82;2.70;;;29.70;99.90;;;;;;4999120;28;20053;-67
2023/08/19 10:26:06;;;;;;;4.43;2.55;;;29.70;99.90;;;;;;4998287;28;20076;-67
2023/08/19 10:28:33;;;;;;;5.88;2.95;;;29.60;99.90;;;;;;5014361;28;20034;-67
2023/08/19 10:31:15;;;;;;;4.70;3.15;;;29.80;99.90;;;;;;5014552;28;20030;-67
2023/08/19 10:33:46;;;;;;;4.65;2.97;;;30.00;99.90;;;;;;4999067;28;20027;-67
2023/08/19 10:36:20;;;;;;;6.90;2.80;;;29.90;99.90;;;;;;4999054;28;20056;-67
2023/08/19 10:38:58;;;;;;;4.07;3.10;;;29.90;99.90;;;;;;4998327;28;20041;-67
2023/08/19 10:41:26;;;;;;;8.77;3.63;;;29.90;99.90;;;;;;4998884;28;20050;-67
2023/08/19 10:43:58;;;;;;;9.32;3.40;;;30.10;99.90;;;;;;4998719;28;20027;-67
2023/08/19 10:46:33;;;;;;;6.68;3.03;;;29.90;99.90;;;;;;5014245;28;20034;-67
2023/08/19 10:48:59;;;;;;;8.82;3.35;;;29.80;99.90;;;;;;4998732;28;20026;-67
2023/08/19 10:51:44;;;;;;;3.83;3.15;;;29.90;99.90;;;;;;4998529;28;20023;-67
2023/08/19 10:54:09;;;;;;;7.88;3.55;;;29.90;99.90;;;;;;4998624;28;20026;-67
2023/08/19 10:56:35;;;;;;;5.43;3.13;;;29.60;99.90;;;;;;4998813;28;20134;-67
2023/08/19 10:59:02;;;;;;;3.53;3.22;;;29.50;99.90;;;;;;4998543;28;20053;-67
2023/08/19 11:01:32;;;;;;;6.65;3.70;;;29.40;99.90;;;;;;4997783;28;20057;-67
2023/08/19 11:04:00;;;;;;;6.10;3.53;;;29.40;99.90;;;;;;4998601;28;20105;-67
2023/08/19 11:06:32;;;;;;;7.00;3.10;;;29.30;99.90;;;;;;4998893;28;20031;-67
2023/08/19 11:09:00;;;;;;;8.35;3.83;;;29.10;99.90;;;;;;4997469;28;20041;-66
2023/08/19 11:11:26;;;;;;;6.60;3.25;;;29.20;99.90;;;;;;4997667;28;20028;-66
2023/08/19 11:13:52;;;;;;;8.60;4.15;;;29.20;99.90;;;;;;4997759;28;20022;-66
2023/08/19 11:16:18;;;;;;;3.65;3.13;;;29.30;99.90;;;;;;5014707;28;20034;-66
2023/08/19 11:18:44;;;;;;;4.43;3.58;;;29.20;99.90;;;;;;5013620;28;20026;-66
2023/08/19 11:21:09;;;;;;;7.57;3.20;;;29.40;99.90;;;;;;5013589;28;20026;-66
2023/08/19 11:23:35;;;;;;;6.82;3.00;;;29.70;99.90;;;;;;5013531;28;20026;-66
2023/08/19 11:26:01;;;;;;;5.43;2.90;;;29.90;99.90;;;;;;4998219;28;20033;-66
2023/08/19 11:28:27;;;;;;;7.43;3.28;;;30.20;99.90;;;;;;4997993;28;20022;-66
2023/08/19 11:30:52;;;;;;;7.85;3.58;;;30.60;99.90;;;;;;5014210;28;20053;-66
2023/08/19 11:33:19;;;;;;;3.30;3.00;;;31.40;99.90;;;;;;4997062;28;20026;-66
2023/08/19 11:35:46;;;;;;;6.13;3.08;;;32.00;99.90;;;;;;5013353;28;20020;-66
2023/08/19 11:38:13;;;;;;;7.00;3.10;;;32.40;99.90;;;;;;4997778;28;20030;-66
2023/08/19 11:40:38;;;;;;;4.22;3.10;;;32.10;99.90;;;;;;4997569;28;20030;-66
2023/08/19 11:43:11;;;;;;;8.27;3.63;;;31.80;99.90;;;;;;4997066;28;20045;-66
2023/08/19 11:45:38;;;;;;;5.55;3.63;;;31.80;99.90;;;;;;4997784;28;20029;-66
2023/08/19 11:48:05;;;;;;;5.88;3.30;;;31.50;99.90;;;;;;4997727;28;20069;-66
2023/08/19 11:50:34;;;;;;;5.72;2.97;;;31.20;99.90;;;;;;4997658;28;20051;-66
2023/08/19 11:53:02;;;;;;;6.63;3.15;;;30.90;99.90;;;;;;5014052;28;20117;-66
2023/08/19 11:55:27;;;;;;;5.95;3.08;;;30.90;99.90;;;;;;5014008;28;20038;-66
2023/08/19 11:57:53;;;;;;;4.10;3.20;;;30.60;99.90;;;;;;4997612;28;20038;-66
2023/08/19 12:00:19;;;;;;;4.70;3.35;;;30.40;99.90;;;;;;5013384;28;20030;-66
2023/08/19 12:02:46;;;;;;;12.05;3.92;;;30.20;99.90;;;;;;5013415;28;20108;-66
2023/08/19 12:05:20;;;;;;;5.45;3.40;;;30.20;99.90;;;;;;5013024;28;20022;-66
2023/08/19 12:07:45;;;;;;;6.25;3.10;;;30.40;99.90;;;;;;4997931;28;20026;-66
2023/08/19 12:10:11;;;;;;;6.38;3.42;;;30.30;99.90;;;;;;5013009;28;20026;-66
2023/08/19 12:12:37;;;;;;;5.70;3.42;;;30.20;99.90;;;;;;5013769;28;20019;-66
2023/08/19 12:15:03;;;;;;;5.68;3.25;;;30.00;99.90;;;;;;5001518;28;20106;-66
2023/08/19 12:17:28;;;;;;;3.95;3.00;;;29.80;99.90;;;;;;5017812;28;20156;-66
2023/08/19 12:19:54;;;;;;;6.90;3.45;;;29.60;99.90;;;;;;5016904;28;20074;-66
2023/08/19 12:22:20;;;;;;;5.47;3.90;;;29.70;99.90;;;;;;5016976;28;20029;-66
2023/08/19 12:24:45;;;;;;;6.22;3.80;;;29.60;99.90;;;;;;5001472;28;20105;-66
2023/08/19 12:27:11;;;;;;;8.93;3.88;;;29.60;99.90;;;;;;5001251;28;20027;-66
2023/08/19 12:29:36;;;;;;;5.38;3.67;;;29.40;99.90;;;;;;5001169;28;20022;-66
2023/08/19 12:32:02;;;;;;;9.25;3.90;;;29.30;99.90;;;;;;5017089;28;20023;-66
2023/08/19 12:34:28;;;;;;;8.48;4.05;;;29.30;99.90;;;;;;5000238;28;20031;-68
2023/08/19 12:36:54;;;;;;;7.50;3.97;;;29.20;99.90;;;;;;5017371;28;20027;-67
2023/08/19 12:39:19;;;;;;;13.18;4.75;;;29.10;99.90;;;;;;5016845;28;20162;-67
2023/08/19 12:41:47;;;;;;;8.50;3.70;;;29.10;99.90;;;;;;5001069;28;20053;-67
2023/08/19 12:44:13;;;;;;;6.47;3.90;;;29.30;99.90;;;;;;5016368;28;20022;-67